This is the latest recevied weather packets stored in our database for station/object K5MGY. If no packets are shown the sender has not sent any weather packets the latest 10 day(s).
| Time | Temp. | Humidity | Pressure | Rain* | Wind** | Luminosity | Snow |
|---|---|---|---|---|---|---|---|
| 1777665972 | 17.22° C | 61% | 1040.5 hPa | 0 mm | - | 105 W/m² | - |
| 1777665669 | 17.22° C | 58% | 1040.9 hPa | 0 mm | - | 72 W/m² | - |
| 1777665366 | 17.22° C | 59% | 1040.8 hPa | 0 mm | - | 52 W/m² | - |
| 1777665062 | 17.22° C | 58% | 1040.7 hPa | 0 mm | - | 97 W/m² | - |
| 1777664757 | 17.22° C | 57% | 1040.7 hPa | 0 mm | - | 73 W/m² | - |
| 1777664453 | 17.22° C | 56% | 1040.5 hPa | 0 mm | - | 72 W/m² | - |
| 1777664151 | 17.22° C | 55% | 1040.5 hPa | 0 mm | - | 77 W/m² | - |
| 1777663850 | 16.67° C | 58% | 1040 hPa | 0 mm | - | 141 W/m² | - |
| 1777663545 | 16.67° C | 57% | 1039.4 hPa | 0 mm | - | 135 W/m² | - |
| 1777663244 | 16.67° C | 55% | 1039.1 hPa | 0 mm | - | 92 W/m² | - |
| 1777662940 | 16.67° C | 54% | 1039.1 hPa | 0 mm | - | 53 W/m² | - |
| 1777662638 | 16.67° C | 54% | 1039.5 hPa | 0 mm | - | 77 W/m² | - |
| 1777662333 | 16.67° C | 54% | 1039.6 hPa | 0 mm | - | 88 W/m² | - |
| 1777662029 | 16.67° C | 55% | 1039.7 hPa | 0 mm | - | 82 W/m² | - |
| 1777661725 | 16.67° C | 53% | 1039.7 hPa | 0 mm | - | 102 W/m² | - |
| 1777661422 | 16.67° C | 54% | 1039.6 hPa | 0 mm | - | 91 W/m² | - |
| 1777661118 | 16.67° C | 53% | 1040.1 hPa | 0 mm | - | 85 W/m² | - |
| 1777660812 | 17.22° C | 54% | 1039.9 hPa | 0 mm | - | 92 W/m² | - |
| 1777660510 | 17.22° C | 54% | 1040.2 hPa | 0 mm | - | 106 W/m² | - |
| 1777660206 | 17.22° C | 55% | 1040 hPa | 0 mm | - | 119 W/m² | - |
| 1777659903 | 17.22° C | 56% | 1040 hPa | 0 mm | - | 105 W/m² | - |
| 1777659599 | 17.22° C | 53% | 1040 hPa | 0 mm | - | 121 W/m² | - |
| 1777659297 | 17.78° C | 52% | 1040.2 hPa | 0 mm | - | 131 W/m² | - |
| 1777658994 | 17.78° C | 55% | 1040.1 hPa | 0 mm | - | 222 W/m² | - |
| 1777658690 | 18.33° C | 54% | 1040.2 hPa | 0 mm | - | 183 W/m² | - |
* Rain latest hour (hover to see other rain measurements)
** Current wind speed in m/s (hover to see current wind gust speed)